createdAt,value
2024-02-26T00:00:31.314Z,6.60
2024-02-26T00:02:57.926Z,8.33
2024-02-26T00:05:24.730Z,8.33
2024-02-26T00:07:51.300Z,8.93
2024-02-26T00:10:17.881Z,7.27
2024-02-26T00:12:44.576Z,7.10
2024-02-26T00:15:11.580Z,7.07
2024-02-26T00:17:39.012Z,5.97
2024-02-26T00:20:09.884Z,7.97
2024-02-26T00:22:37.035Z,7.83
2024-02-26T00:25:03.909Z,6.57
2024-02-26T00:27:30.464Z,7.27
2024-02-26T00:29:57.127Z,7.10
2024-02-26T00:32:24.298Z,8.07
2024-02-26T00:34:51.783Z,6.67
2024-02-26T00:37:18.521Z,6.77
2024-02-26T00:39:45.890Z,7.30
2024-02-26T00:42:12.618Z,6.23
2024-02-26T00:44:39.326Z,7.57
2024-02-26T00:47:06.011Z,6.50
2024-02-26T00:49:33.194Z,7.07
2024-02-26T00:51:59.776Z,7.00
2024-02-26T00:54:26.333Z,6.40
2024-02-26T00:56:52.936Z,7.57
2024-02-26T00:59:19.546Z,6.30
2024-02-26T01:01:46.123Z,7.33
2024-02-26T01:04:13.505Z,7.97
2024-02-26T01:06:40.244Z,6.60
2024-02-26T01:09:07.195Z,6.83
2024-02-26T01:11:33.980Z,7.20
2024-02-26T01:14:00.743Z,7.10
2024-02-26T01:16:29.961Z,8.00
2024-02-26T01:18:56.661Z,6.60
2024-02-26T01:21:23.365Z,7.30
2024-02-26T01:23:50.104Z,6.73
2024-02-26T01:26:16.634Z,8.13
2024-02-26T01:28:43.212Z,11.60
2024-02-26T01:31:11.289Z,6.97
2024-02-26T01:33:38.102Z,7.00
2024-02-26T01:36:06.443Z,8.30
2024-02-26T01:38:33.078Z,6.50
2024-02-26T01:40:59.743Z,7.80
2024-02-26T01:43:26.316Z,7.23
2024-02-26T01:45:52.973Z,8.30
2024-02-26T01:48:19.780Z,10.50
2024-02-26T01:50:46.482Z,6.90
2024-02-26T01:53:14.049Z,8.40
2024-02-26T01:55:41.480Z,10.00
2024-02-26T01:58:08.334Z,8.47
2024-02-26T02:00:35.454Z,11.07
2024-02-26T02:03:04.711Z,7.33
2024-02-26T02:05:31.829Z,8.50
2024-02-26T02:07:58.515Z,7.30
2024-02-26T02:10:27.260Z,7.27
2024-02-26T02:12:54.069Z,7.20
2024-02-26T02:15:21.752Z,6.90
2024-02-26T02:17:49.078Z,7.17
2024-02-26T02:20:19.910Z,8.00
2024-02-26T02:22:47.471Z,7.53
2024-02-26T02:25:14.632Z,5.90
2024-02-26T02:27:43.477Z,6.30
2024-02-26T02:30:11.880Z,6.10
2024-02-26T02:32:42.045Z,6.43
2024-02-26T02:35:11.828Z,6.67
2024-02-26T02:37:38.710Z,7.60
2024-02-26T02:40:06.345Z,6.30
2024-02-26T02:42:32.889Z,6.53
2024-02-26T02:44:59.491Z,7.77
2024-02-26T02:47:26.154Z,8.43
2024-02-26T02:49:52.698Z,6.63
2024-02-26T02:52:19.342Z,7.00
2024-02-26T02:54:48.092Z,6.50
2024-02-26T02:57:14.887Z,7.10
2024-02-26T02:59:41.554Z,6.33
2024-02-26T03:02:08.157Z,6.90
2024-02-26T03:04:34.872Z,6.40
2024-02-26T03:07:01.853Z,7.10
2024-02-26T03:09:28.662Z,6.97
2024-02-26T03:11:55.362Z,7.30
2024-02-26T03:14:22.034Z,6.57
2024-02-26T03:16:48.638Z,5.80
2024-02-26T03:19:18.649Z,7.40
2024-02-26T03:21:45.384Z,7.10
2024-02-26T03:24:13.206Z,7.50
2024-02-26T03:26:40.011Z,6.40
2024-02-26T03:29:06.920Z,7.23
2024-02-26T03:31:33.502Z,8.97
2024-02-26T03:34:00.438Z,6.67
2024-02-26T03:36:27.980Z,6.23
2024-02-26T03:38:54.790Z,6.53
2024-02-26T03:41:21.327Z,6.57
2024-02-26T03:43:48.079Z,8.23
2024-02-26T03:46:15.066Z,9.23
2024-02-26T03:48:42.778Z,8.50
2024-02-26T03:51:10.778Z,6.73
2024-02-26T03:53:38.602Z,8.23
2024-02-26T03:56:06.692Z,6.77
2024-02-26T03:58:33.905Z,7.20
2024-02-26T04:01:01.347Z,6.10
2024-02-26T04:03:27.996Z,6.57
2024-02-26T04:05:54.885Z,6.37
2024-02-26T04:08:21.511Z,5.80
2024-02-26T04:10:48.212Z,6.03
2024-02-26T04:13:14.807Z,5.80
2024-02-26T04:15:41.401Z,6.43
2024-02-26T04:18:08.228Z,6.37
2024-02-26T04:20:34.830Z,6.63
2024-02-26T04:23:01.420Z,8.63
2024-02-26T04:25:29.408Z,8.37
2024-02-26T04:27:56.042Z,6.87
2024-02-26T04:30:22.719Z,6.33
2024-02-26T04:32:49.362Z,7.07
2024-02-26T04:35:16.136Z,8.77
2024-02-26T04:37:42.742Z,7.70
2024-02-26T04:40:09.710Z,6.07
2024-02-26T04:42:36.365Z,6.40
2024-02-26T04:45:03.338Z,7.00
2024-02-26T04:47:31.132Z,7.53
2024-02-26T04:49:57.804Z,7.70
2024-02-26T04:52:24.445Z,6.40
2024-02-26T04:54:51.195Z,6.20
2024-02-26T04:57:19.660Z,7.13
2024-02-26T04:59:47.114Z,7.73
2024-02-26T05:02:14.510Z,7.60
2024-02-26T05:04:41.401Z,6.20
2024-02-26T05:07:08.120Z,6.40
2024-02-26T05:09:34.866Z,7.40
2024-02-26T05:12:01.606Z,6.00
2024-02-26T05:14:28.165Z,7.27
2024-02-26T05:16:54.745Z,7.40
2024-02-26T05:19:21.433Z,6.83
2024-02-26T05:21:50.275Z,9.00
2024-02-26T05:24:18.824Z,8.27
2024-02-26T05:26:46.807Z,6.27
2024-02-26T05:29:13.653Z,16.23
2024-02-26T05:31:40.875Z,8.10
2024-02-26T05:34:07.782Z,7.70
2024-02-26T05:36:34.884Z,6.80
2024-02-26T05:39:02.641Z,7.80
2024-02-26T05:41:29.262Z,6.93
2024-02-26T05:43:56.159Z,12.80
2024-02-26T05:46:23.496Z,8.60
2024-02-26T05:48:53.977Z,7.20
2024-02-26T05:51:21.028Z,9.03
2024-02-26T05:53:49.058Z,14.00
2024-02-26T05:56:15.695Z,11.43
2024-02-26T05:58:42.284Z,38.40
2024-02-26T06:01:08.888Z,9.77
2024-02-26T06:03:35.624Z,7.63
2024-02-26T06:06:03.323Z,7.67
2024-02-26T06:08:30.118Z,7.83
2024-02-26T06:10:56.777Z,9.50
2024-02-26T06:13:23.388Z,11.10
2024-02-26T06:15:50.092Z,9.03
2024-02-26T06:18:17.355Z,9.70
2024-02-26T06:20:44.129Z,15.30
2024-02-26T06:23:11.227Z,9.10
2024-02-26T06:25:37.845Z,7.53
2024-02-26T06:28:04.644Z,8.30
2024-02-26T06:30:31.411Z,13.63
2024-02-26T06:32:58.165Z,9.67
2024-02-26T06:35:24.876Z,9.77
2024-02-26T06:37:53.751Z,7.90
2024-02-26T06:40:20.780Z,9.93
2024-02-26T06:42:49.707Z,8.30
2024-02-26T06:45:16.681Z,8.17
2024-02-26T06:47:43.944Z,8.10
2024-02-26T06:50:13.158Z,8.93
2024-02-26T06:52:39.756Z,8.13
2024-02-26T06:55:09.344Z,7.80
2024-02-26T06:57:35.964Z,7.83
2024-02-26T07:00:05.026Z,7.87
2024-02-26T07:02:32.412Z,9.30
2024-02-26T07:04:59.545Z,6.70
2024-02-26T07:07:26.689Z,13.97
2024-02-26T07:09:53.382Z,8.27
2024-02-26T07:12:22.266Z,8.03
2024-02-26T07:14:50.087Z,9.50
2024-02-26T07:17:17.399Z,10.97
2024-02-26T07:19:44.150Z,19.57
2024-02-26T07:22:10.800Z,8.53
2024-02-26T07:24:37.367Z,11.70
2024-02-26T07:27:04.278Z,7.77
2024-02-26T07:29:30.894Z,12.17
2024-02-26T07:31:57.800Z,9.97
2024-02-26T07:34:28.799Z,10.37
2024-02-26T07:36:55.803Z,11.50
2024-02-26T07:39:22.470Z,9.07
2024-02-26T07:41:51.074Z,10.23
2024-02-26T07:44:17.932Z,9.67
2024-02-26T07:46:44.448Z,8.90
2024-02-26T07:49:11.153Z,10.17
2024-02-26T07:51:37.897Z,7.67
2024-02-26T07:54:05.208Z,10.10
2024-02-26T07:56:31.859Z,9.30
2024-02-26T07:58:58.519Z,11.13
2024-02-26T08:01:27.132Z,10.43
2024-02-26T08:03:56.922Z,10.50
2024-02-26T08:06:24.886Z,9.10
2024-02-26T08:08:51.805Z,9.37
2024-02-26T08:11:18.429Z,10.47
2024-02-26T08:13:45.047Z,9.30
2024-02-26T08:16:11.669Z,9.50
2024-02-26T08:18:38.335Z,12.50
2024-02-26T08:21:05.321Z,7.60
2024-02-26T08:23:32.816Z,8.93
2024-02-26T08:25:59.452Z,12.57
2024-02-26T08:28:26.118Z,7.80
2024-02-26T08:30:52.716Z,8.17
2024-02-26T08:33:19.633Z,8.67
2024-02-26T08:35:46.370Z,11.73
2024-02-26T08:38:13.082Z,10.47
2024-02-26T08:40:39.664Z,7.90
2024-02-26T08:43:06.203Z,9.10
2024-02-26T08:45:32.946Z,7.57
2024-02-26T08:48:00.688Z,10.70
2024-02-26T08:50:27.900Z,13.50
2024-02-26T08:52:54.570Z,7.70
2024-02-26T08:55:21.298Z,9.83
2024-02-26T08:57:49.087Z,9.50
2024-02-26T09:00:18.847Z,8.23
2024-02-26T09:02:45.819Z,7.67
2024-02-26T09:05:12.689Z,8.37
2024-02-26T09:07:39.503Z,11.20
2024-02-26T09:10:07.092Z,7.97
2024-02-26T09:12:33.829Z,7.63
2024-02-26T09:15:00.725Z,10.70
2024-02-26T09:17:27.524Z,7.30
2024-02-26T09:19:54.094Z,8.57
2024-02-26T09:22:20.683Z,7.87
2024-02-26T09:24:47.406Z,9.50
2024-02-26T09:27:14.011Z,9.40
2024-02-26T09:29:40.586Z,10.60
2024-02-26T09:32:07.373Z,10.33
2024-02-26T09:34:35.062Z,9.50
2024-02-26T09:37:08.598Z,8.57
2024-02-26T09:39:42.383Z,8.63
2024-02-26T09:42:11.292Z,8.10
2024-02-26T09:44:42.368Z,9.80
2024-02-26T09:47:14.707Z,7.47
2024-02-26T09:49:41.516Z,7.83
2024-02-26T09:52:10.660Z,10.93
2024-02-26T09:54:37.352Z,8.70
2024-02-26T09:57:08.887Z,8.10
2024-02-26T09:59:43.930Z,8.70
2024-02-26T10:02:14.201Z,10.30
2024-02-26T10:04:41.934Z,8.10
2024-02-26T10:07:15.277Z,8.13
2024-02-26T10:09:42.020Z,9.80
2024-02-26T10:12:11.801Z,10.73
2024-02-26T10:14:38.503Z,8.03
2024-02-26T10:17:09.819Z,8.60
2024-02-26T10:19:38.897Z,8.00
2024-02-26T10:22:06.767Z,8.40
2024-02-26T10:24:33.813Z,7.40
2024-02-26T10:27:00.646Z,7.67
2024-02-26T10:29:27.384Z,7.93
2024-02-26T10:31:54.341Z,9.73
2024-02-26T10:34:22.375Z,8.97
2024-02-26T10:36:53.592Z,8.70
2024-02-26T10:39:21.635Z,10.50
2024-02-26T10:41:48.522Z,8.70
2024-02-26T10:44:18.339Z,9.10
2024-02-26T10:46:48.336Z,7.97
2024-02-26T10:49:25.271Z,11.23
2024-02-26T10:51:58.526Z,10.17
2024-02-26T10:54:28.831Z,7.23
2024-02-26T10:56:58.416Z,8.00
2024-02-26T10:59:25.449Z,9.83
2024-02-26T11:01:53.042Z,9.10
2024-02-26T11:04:21.172Z,7.70
2024-02-26T11:06:49.146Z,9.13
2024-02-26T11:09:16.823Z,9.40
2024-02-26T11:11:43.864Z,8.40
2024-02-26T11:14:11.273Z,11.70
2024-02-26T11:16:40.229Z,9.00
2024-02-26T11:19:10.479Z,7.40
2024-02-26T11:21:42.371Z,8.20
2024-02-26T11:24:14.605Z,10.80
2024-02-26T11:26:49.329Z,9.53
2024-02-26T11:29:21.826Z,8.60
2024-02-26T11:31:48.938Z,8.83
2024-02-26T11:34:15.866Z,10.13
2024-02-26T11:36:43.518Z,9.20
2024-02-26T11:39:13.720Z,9.10
2024-02-26T11:41:40.487Z,13.10
2024-02-26T11:44:08.315Z,14.50
2024-02-26T11:46:44.743Z,14.00
2024-02-26T11:49:30.125Z,10.40
2024-02-26T11:51:57.769Z,21.57
2024-02-26T11:54:54.361Z,30.60
2024-02-26T11:57:31.833Z,12.23
2024-02-26T12:00:17.820Z,11.30
2024-02-26T12:02:44.872Z,11.13
2024-02-26T12:05:17.780Z,9.70
2024-02-26T12:07:50.040Z,13.80
2024-02-26T12:10:23.202Z,10.80
2024-02-26T12:12:50.752Z,14.70
2024-02-26T12:15:18.651Z,11.50
2024-02-26T12:17:50.541Z,19.37
2024-02-26T12:20:18.551Z,11.90
2024-02-26T12:22:49.332Z,11.10
2024-02-26T12:25:15.957Z,11.80
2024-02-26T12:27:42.644Z,12.63
2024-02-26T12:30:09.935Z,16.93
2024-02-26T12:32:37.422Z,14.27
2024-02-26T12:35:05.098Z,12.90
2024-02-26T12:37:31.864Z,12.20
2024-02-26T12:39:58.910Z,11.97
2024-02-26T12:42:26.018Z,14.00
2024-02-26T12:44:53.850Z,11.00
2024-02-26T12:47:20.444Z,12.03
2024-02-26T12:49:50.785Z,23.73
2024-02-26T12:52:18.277Z,13.80
2024-02-26T12:54:45.638Z,14.97
2024-02-26T12:57:12.637Z,14.50
2024-02-26T12:59:40.003Z,14.67
2024-02-26T13:02:08.548Z,14.27
2024-02-26T13:04:36.206Z,17.70
2024-02-26T13:07:06.291Z,15.03
2024-02-26T13:09:37.238Z,16.50
2024-02-26T13:12:08.579Z,18.13
2024-02-26T13:14:35.515Z,18.00
2024-02-26T13:17:03.490Z,16.37
2024-02-26T13:19:30.504Z,13.73
2024-02-26T13:21:57.340Z,19.80
2024-02-26T13:24:26.359Z,14.87
2024-02-26T13:26:56.983Z,18.07
2024-02-26T13:29:26.449Z,15.70
2024-02-26T13:31:59.888Z,14.20
2024-02-26T13:34:28.431Z,14.37
2024-02-26T13:36:56.170Z,14.87
2024-02-26T13:39:27.200Z,20.40
2024-02-26T13:41:54.702Z,14.30
2024-02-26T13:44:21.967Z,16.90
2024-02-26T13:46:50.575Z,13.73
2024-02-26T13:49:17.565Z,14.97
2024-02-26T13:51:44.613Z,18.33
2024-02-26T13:54:11.891Z,15.70
2024-02-26T13:56:38.735Z,13.50
2024-02-26T13:59:05.919Z,15.70
2024-02-26T14:01:34.955Z,15.80
2024-02-26T14:04:03.373Z,17.73
2024-02-26T14:06:32.243Z,15.40
2024-02-26T14:08:59.768Z,14.90
2024-02-26T14:11:26.817Z,17.47
2024-02-26T14:13:53.550Z,15.93
2024-02-26T14:16:21.495Z,15.97
2024-02-26T14:18:48.562Z,13.73
2024-02-26T14:21:15.496Z,14.60
2024-02-26T14:23:43.726Z,13.00
2024-02-26T14:26:10.576Z,14.17
2024-02-26T14:28:37.243Z,17.50
2024-02-26T14:31:05.495Z,13.67
2024-02-26T14:33:32.446Z,15.20
2024-02-26T14:35:59.301Z,14.03
2024-02-26T14:38:25.887Z,15.30
2024-02-26T14:40:52.450Z,13.77
2024-02-26T14:43:19.021Z,17.40
2024-02-26T14:45:45.680Z,14.70
2024-02-26T14:48:12.777Z,12.87
2024-02-26T14:50:39.638Z,14.07
2024-02-26T14:53:06.555Z,14.30
2024-02-26T14:55:33.683Z,12.97
2024-02-26T14:58:00.397Z,13.50
2024-02-26T15:00:27.137Z,12.70
2024-02-26T15:02:55.990Z,12.57
2024-02-26T15:05:22.744Z,13.77
2024-02-26T15:07:50.323Z,19.20
2024-02-26T15:10:17.079Z,15.27
2024-02-26T15:12:43.917Z,12.33
2024-02-26T15:15:10.875Z,13.87
2024-02-26T15:17:37.679Z,13.83
2024-02-26T15:20:06.760Z,12.30
2024-02-26T15:22:33.435Z,14.60
2024-02-26T15:25:00.058Z,12.67
2024-02-26T15:27:26.775Z,14.70
2024-02-26T15:29:59.316Z,13.60
2024-02-26T15:32:25.935Z,14.77
2024-02-26T15:34:52.674Z,13.43
2024-02-26T15:37:20.161Z,13.90
2024-02-26T15:39:47.216Z,12.47
2024-02-26T15:42:14.153Z,12.73
2024-02-26T15:44:41.874Z,14.03
2024-02-26T15:47:08.703Z,11.47
2024-02-26T15:49:35.589Z,17.67
2024-02-26T15:52:02.432Z,13.63
2024-02-26T15:54:29.037Z,12.83
2024-02-26T15:56:55.922Z,12.07
2024-02-26T15:59:22.588Z,14.47
2024-02-26T16:01:50.295Z,12.67
2024-02-26T16:04:17.070Z,16.17
2024-02-26T16:06:46.982Z,13.00
2024-02-26T16:09:13.681Z,13.77
2024-02-26T16:11:40.877Z,12.03
2024-02-26T16:14:45.870Z,13.57
2024-02-26T16:17:35.272Z,14.23
2024-02-26T16:20:05.283Z,10.83
2024-02-26T16:22:33.319Z,12.00
2024-02-26T16:25:00.074Z,11.40
2024-02-26T16:27:26.773Z,10.70
2024-02-26T16:29:54.187Z,10.73
2024-02-26T16:32:20.820Z,12.83
2024-02-26T16:34:47.506Z,14.60
2024-02-26T16:37:15.343Z,10.03
2024-02-26T16:39:42.613Z,8.93
2024-02-26T16:42:11.452Z,10.33
2024-02-26T16:44:38.743Z,13.77
2024-02-26T16:47:09.441Z,9.63
2024-02-26T16:49:36.727Z,9.50
2024-02-26T16:52:04.388Z,8.57
2024-02-26T16:54:31.311Z,8.90
2024-02-26T16:57:00.939Z,12.03
2024-02-26T16:59:29.393Z,9.13
2024-02-26T17:01:56.869Z,8.93
2024-02-26T17:04:24.446Z,11.90
2024-02-26T17:06:51.247Z,9.80
2024-02-26T17:09:19.543Z,10.53
2024-02-26T17:11:47.143Z,9.90
2024-02-26T17:14:14.118Z,10.03
2024-02-26T17:16:40.780Z,8.43
2024-02-26T17:19:07.394Z,10.90
2024-02-26T17:21:34.188Z,9.63
2024-02-26T17:24:02.134Z,10.90
2024-02-26T17:26:29.327Z,11.13
2024-02-26T17:28:57.273Z,11.60
2024-02-26T17:31:26.066Z,12.57
2024-02-26T17:33:52.839Z,14.43
2024-02-26T17:36:19.612Z,10.30
2024-02-26T17:38:49.389Z,11.43
2024-02-26T17:41:16.710Z,10.30
2024-02-26T17:43:43.499Z,11.73
2024-02-26T17:46:10.199Z,8.93
2024-02-26T17:48:36.887Z,10.50
2024-02-26T17:51:04.984Z,8.90
2024-02-26T17:53:31.586Z,9.80
2024-02-26T17:55:58.443Z,9.67
2024-02-26T17:58:24.988Z,9.10
2024-02-26T18:00:51.647Z,8.47
2024-02-26T18:03:18.212Z,9.53
2024-02-26T18:05:44.772Z,8.50
2024-02-26T18:08:12.145Z,10.10
2024-02-26T18:10:38.701Z,9.40
2024-02-26T18:13:05.427Z,9.30
2024-02-26T18:15:33.466Z,8.30
2024-02-26T18:18:00.507Z,9.50
2024-02-26T18:20:27.259Z,9.70
2024-02-26T18:22:53.815Z,13.87
2024-02-26T18:25:20.373Z,10.67
2024-02-26T18:27:47.272Z,9.07
2024-02-26T18:30:14.080Z,9.43
2024-02-26T18:32:40.812Z,10.10
2024-02-26T18:35:09.749Z,10.00
2024-02-26T18:37:36.464Z,9.00
2024-02-26T18:40:07.849Z,13.80
2024-02-26T18:42:36.624Z,8.40
2024-02-26T18:45:03.716Z,8.80
2024-02-26T18:47:31.059Z,10.10
2024-02-26T18:49:58.529Z,8.60
2024-02-26T18:52:25.210Z,9.03
2024-02-26T18:54:51.901Z,7.70
2024-02-26T18:57:18.973Z,7.93
2024-02-26T18:59:47.281Z,7.33
2024-02-26T19:02:14.099Z,8.23
2024-02-26T19:04:41.289Z,10.00
2024-02-26T19:07:07.974Z,11.03
2024-02-26T19:09:34.904Z,9.73
2024-02-26T19:12:01.677Z,10.03
2024-02-26T19:14:29.791Z,12.17
2024-02-26T19:16:56.495Z,8.30
2024-02-26T19:19:23.590Z,9.33
2024-02-26T19:21:50.204Z,8.83
2024-02-26T19:24:18.215Z,9.17
2024-02-26T19:26:44.836Z,8.30
2024-02-26T19:29:11.535Z,10.40
2024-02-26T19:31:38.228Z,8.47
2024-02-26T19:34:05.072Z,11.10
2024-02-26T19:36:32.093Z,9.50
2024-02-26T19:38:58.998Z,7.67
2024-02-26T19:41:25.609Z,9.20
2024-02-26T19:43:52.228Z,8.70
2024-02-26T19:46:18.907Z,8.67
2024-02-26T19:48:45.731Z,15.10
2024-02-26T19:51:21.568Z,10.47
2024-02-26T19:53:52.187Z,12.23
2024-02-26T19:56:22.577Z,9.40
2024-02-26T19:58:49.181Z,11.00
2024-02-26T20:01:15.920Z,10.80
2024-02-26T20:03:49.428Z,11.03
2024-02-26T20:06:19.717Z,15.30
2024-02-26T20:08:46.628Z,12.83
2024-02-26T20:11:18.162Z,11.17
2024-02-26T20:13:45.215Z,13.93
2024-02-26T20:16:13.534Z,13.53
2024-02-26T20:18:40.320Z,12.57
2024-02-26T20:21:07.424Z,14.50
2024-02-26T20:23:34.004Z,12.97
2024-02-26T20:26:02.572Z,13.30
2024-02-26T20:28:31.108Z,13.97
2024-02-26T20:30:57.758Z,15.30
2024-02-26T20:33:25.646Z,14.97
2024-02-26T20:35:52.570Z,14.70
2024-02-26T20:38:19.565Z,15.73
2024-02-26T20:40:46.198Z,18.60
2024-02-26T20:43:12.860Z,18.97
2024-02-26T20:45:40.505Z,15.17
2024-02-26T20:48:10.295Z,16.40
2024-02-26T20:50:37.453Z,16.10
2024-02-26T20:53:04.299Z,17.60
2024-02-26T20:55:30.919Z,17.03
2024-02-26T20:57:57.829Z,21.43
2024-02-26T21:00:24.637Z,17.20
2024-02-26T21:02:51.542Z,18.37
2024-02-26T21:05:18.471Z,17.87
2024-02-26T21:07:45.473Z,17.50
2024-02-26T21:10:13.483Z,16.87
2024-02-26T21:12:40.853Z,19.67
2024-02-26T21:15:09.641Z,20.77
2024-02-26T21:17:36.249Z,17.83
2024-02-26T21:20:03.275Z,18.90
2024-02-26T21:22:30.043Z,20.70
2024-02-26T21:24:56.620Z,18.43
2024-02-26T21:27:23.779Z,18.83
2024-02-26T21:29:50.738Z,22.93
2024-02-26T21:32:17.539Z,18.33
2024-02-26T21:34:45.442Z,17.57
2024-02-26T21:37:12.232Z,18.60
2024-02-26T21:39:39.017Z,19.27
2024-02-26T21:42:05.918Z,22.27
2024-02-26T21:44:32.747Z,17.10
2024-02-26T21:46:59.690Z,17.30
2024-02-26T21:49:26.394Z,18.80
2024-02-26T21:51:53.120Z,19.00
2024-02-26T21:54:20.271Z,18.70
2024-02-26T21:56:46.976Z,21.83
2024-02-26T21:59:14.127Z,18.57
2024-02-26T22:01:40.979Z,21.70
2024-02-26T22:04:07.775Z,23.00
2024-02-26T22:06:34.660Z,22.10
2024-02-26T22:09:01.646Z,21.70
2024-02-26T22:11:28.453Z,21.23
2024-02-26T22:13:55.158Z,26.43
2024-02-26T22:16:21.920Z,22.17
2024-02-26T22:18:48.853Z,25.93
2024-02-26T22:21:15.653Z,23.30
2024-02-26T22:23:42.392Z,23.73
2024-02-26T22:26:10.354Z,24.07
2024-02-26T22:28:37.757Z,25.83
2024-02-26T22:31:05.599Z,24.03
2024-02-26T22:33:32.759Z,26.87
2024-02-26T22:35:59.610Z,25.60
2024-02-26T22:38:26.230Z,25.40
2024-02-26T22:40:52.775Z,25.23
2024-02-26T22:43:19.362Z,26.10
2024-02-26T22:45:46.134Z,26.40
2024-02-26T22:48:13.356Z,31.50
2024-02-26T22:50:39.967Z,27.00
2024-02-26T22:53:06.810Z,28.50
2024-02-26T22:55:33.375Z,27.13
2024-02-26T22:58:00.060Z,27.30
2024-02-26T23:00:33.325Z,30.73
2024-02-26T23:03:01.031Z,28.87
2024-02-26T23:05:28.534Z,32.83
2024-02-26T23:07:56.755Z,30.13
2024-02-26T23:10:24.152Z,34.53
2024-02-26T23:12:51.395Z,30.30
2024-02-26T23:15:19.245Z,29.57
2024-02-26T23:17:46.033Z,33.27
2024-02-26T23:20:14.525Z,34.97
2024-02-26T23:22:47.966Z,31.97
2024-02-26T23:25:15.985Z,30.83
2024-02-26T23:27:44.519Z,31.87
2024-02-26T23:30:12.128Z,30.80
2024-02-26T23:32:39.113Z,30.97
2024-02-26T23:35:08.127Z,31.73
2024-02-26T23:37:36.530Z,31.53
2024-02-26T23:40:08.932Z,33.53
2024-02-26T23:42:36.476Z,36.87
2024-02-26T23:45:03.976Z,34.30
2024-02-26T23:47:30.667Z,32.30
2024-02-26T23:49:58.218Z,34.03
2024-02-26T23:52:24.912Z,34.30
2024-02-26T23:54:51.648Z,39.03
2024-02-26T23:57:18.444Z,32.77
2024-02-26T23:59:45.177Z,34.07
